createdAt,value
2018-07-31T00:01:50.130Z,20.40
2018-07-31T00:04:19.396Z,20.40
2018-07-31T00:06:48.611Z,20.30
2018-07-31T00:09:17.733Z,20.30
2018-07-31T00:11:47.087Z,20.30
2018-07-31T00:14:16.280Z,20.30
2018-07-31T00:16:45.512Z,20.30
2018-07-31T00:19:14.672Z,20.20
2018-07-31T00:21:43.924Z,20.20
2018-07-31T00:24:13.064Z,20.10
2018-07-31T00:26:42.308Z,20.10
2018-07-31T00:29:11.487Z,20.10
2018-07-31T00:31:41.200Z,20.10
2018-07-31T00:34:10.583Z,20.10
2018-07-31T00:36:39.875Z,20.10
2018-07-31T00:39:10.563Z,20.00
2018-07-31T00:41:40.048Z,20.00
2018-07-31T00:44:09.217Z,19.90
2018-07-31T00:46:38.658Z,19.90
2018-07-31T00:49:08.243Z,19.90
2018-07-31T00:51:38.078Z,19.80
2018-07-31T00:54:07.297Z,19.80
2018-07-31T00:56:36.583Z,19.80
2018-07-31T00:59:06.039Z,19.80
2018-07-31T01:01:35.136Z,19.70
2018-07-31T01:04:04.219Z,19.70
2018-07-31T01:06:37.536Z,19.70
2018-07-31T01:09:09.558Z,19.70
2018-07-31T01:11:39.220Z,19.70
2018-07-31T01:14:09.316Z,19.70
2018-07-31T01:16:40.653Z,19.60
2018-07-31T01:19:11.341Z,19.60
2018-07-31T01:21:41.054Z,19.60
2018-07-31T01:24:10.884Z,19.60
2018-07-31T01:26:40.092Z,19.60
2018-07-31T01:29:09.675Z,19.60
2018-07-31T01:31:38.759Z,19.50
2018-07-31T01:34:07.977Z,19.50
2018-07-31T01:36:37.209Z,19.50
2018-07-31T01:39:08.972Z,19.50
2018-07-31T01:41:38.239Z,19.40
2018-07-31T01:44:07.407Z,19.40
2018-07-31T01:46:36.819Z,19.40
2018-07-31T01:49:06.044Z,19.30
2018-07-31T01:51:35.295Z,19.40
2018-07-31T01:54:04.454Z,19.40
2018-07-31T01:56:33.880Z,19.30
2018-07-31T01:59:03.249Z,19.30
2018-07-31T02:01:32.420Z,19.30
2018-07-31T02:04:01.631Z,19.30
2018-07-31T02:06:30.715Z,19.30
2018-07-31T02:09:00.010Z,19.30
2018-07-31T02:11:29.216Z,19.30
2018-07-31T02:13:58.439Z,19.30
2018-07-31T02:16:27.628Z,19.30
2018-07-31T02:18:57.465Z,19.30
2018-07-31T02:21:26.857Z,19.30
2018-07-31T02:23:55.941Z,19.40
2018-07-31T02:26:25.134Z,19.40
2018-07-31T02:28:54.328Z,19.40
2018-07-31T02:31:23.501Z,19.40
2018-07-31T02:33:52.835Z,19.40
2018-07-31T02:36:22.044Z,19.40
2018-07-31T02:38:51.345Z,19.40
2018-07-31T02:41:20.535Z,19.40
2018-07-31T02:46:18.611Z,19.30
2018-07-31T02:48:47.915Z,19.30
2018-07-31T02:51:17.178Z,19.30
2018-07-31T02:53:46.283Z,19.30
2018-07-31T02:56:15.533Z,19.30
2018-07-31T02:58:45.184Z,19.20
2018-07-31T03:01:14.335Z,19.20
2018-07-31T03:03:43.528Z,19.20
2018-07-31T03:06:12.834Z,19.20
2018-07-31T03:08:42.053Z,19.20
2018-07-31T03:11:11.136Z,19.30
2018-07-31T03:13:40.276Z,19.30
2018-07-31T03:16:09.560Z,19.30
2018-07-31T03:18:38.916Z,19.30
2018-07-31T03:21:08.115Z,19.30
2018-07-31T03:23:37.311Z,19.20
2018-07-31T03:26:06.629Z,19.20
2018-07-31T03:28:35.695Z,19.20
2018-07-31T03:33:33.592Z,19.20
2018-07-31T03:36:02.789Z,19.20
2018-07-31T03:38:31.980Z,19.20
2018-07-31T03:41:01.390Z,19.20
2018-07-31T03:43:30.602Z,19.10
2018-07-31T03:45:59.754Z,19.10
2018-07-31T03:48:28.896Z,19.10
2018-07-31T03:50:58.104Z,19.10
2018-07-31T03:53:27.350Z,19.00
2018-07-31T03:55:56.572Z,19.00
2018-07-31T03:58:25.768Z,19.10
2018-07-31T04:00:55.000Z,19.10
2018-07-31T04:03:24.251Z,19.10
2018-07-31T04:05:53.479Z,19.10
2018-07-31T04:08:22.680Z,19.10
2018-07-31T04:10:51.893Z,19.20
2018-07-31T04:13:21.924Z,19.20
2018-07-31T04:15:51.008Z,19.20
2018-07-31T04:20:48.799Z,19.40
2018-07-31T04:23:18.105Z,19.40
2018-07-31T04:25:47.252Z,19.50
2018-07-31T04:28:16.507Z,19.50
2018-07-31T04:30:45.732Z,19.60
2018-07-31T04:33:14.828Z,19.70
2018-07-31T04:35:54.434Z,19.80
2018-07-31T04:38:23.704Z,20.00
2018-07-31T04:40:52.999Z,20.20
2018-07-31T04:43:22.236Z,20.40
2018-07-31T04:45:51.390Z,20.60
2018-07-31T04:48:20.603Z,20.80
2018-07-31T04:50:50.369Z,20.90
2018-07-31T04:53:19.482Z,21.10
2018-07-31T04:55:48.719Z,21.30
2018-07-31T04:58:17.944Z,21.70
2018-07-31T05:00:47.159Z,22.00
2018-07-31T05:03:16.325Z,22.20
2018-07-31T05:05:45.749Z,22.30
2018-07-31T05:08:14.903Z,22.60
2018-07-31T05:10:44.204Z,22.80
2018-07-31T05:13:13.338Z,23.10
2018-07-31T05:18:11.428Z,23.50
2018-07-31T05:23:09.308Z,23.60
2018-07-31T05:25:38.488Z,23.60
2018-07-31T05:28:07.636Z,23.60
2018-07-31T05:30:36.811Z,23.50
2018-07-31T05:33:06.226Z,23.50
2018-07-31T05:35:35.346Z,23.50
2018-07-31T05:38:04.474Z,23.70
2018-07-31T05:40:33.766Z,23.70
2018-07-31T05:43:02.871Z,23.70
2018-07-31T05:45:32.162Z,23.60
2018-07-31T05:48:01.449Z,23.70
2018-07-31T05:50:30.567Z,23.80
2018-07-31T05:52:59.790Z,24.00
2018-07-31T05:55:29.018Z,24.30
2018-07-31T05:57:58.131Z,24.60
2018-07-31T06:00:27.550Z,24.70
2018-07-31T06:02:56.791Z,25.00
2018-07-31T06:05:26.119Z,25.50
2018-07-31T06:07:55.275Z,25.70
2018-07-31T06:10:24.451Z,25.80
2018-07-31T06:12:53.655Z,26.00
2018-07-31T06:15:22.919Z,26.10
2018-07-31T06:17:51.964Z,26.10
2018-07-31T06:20:21.299Z,26.10
2018-07-31T06:22:50.497Z,26.00
2018-07-31T06:25:19.770Z,25.90
2018-07-31T06:27:48.861Z,25.70
2018-07-31T06:30:18.219Z,25.40
2018-07-31T06:32:47.362Z,25.10
2018-07-31T06:35:16.545Z,24.80
2018-07-31T06:37:45.852Z,24.60
2018-07-31T06:40:15.063Z,24.50
2018-07-31T06:42:44.410Z,24.50
2018-07-31T06:45:13.596Z,24.60
2018-07-31T06:47:42.759Z,24.80
2018-07-31T06:50:11.997Z,25.10
2018-07-31T06:52:41.213Z,25.10
2018-07-31T06:55:10.488Z,25.30
2018-07-31T06:57:39.612Z,25.40
2018-07-31T07:00:08.988Z,25.90
2018-07-31T07:02:38.203Z,26.10
2018-07-31T07:05:07.409Z,25.90
2018-07-31T07:07:36.793Z,25.50
2018-07-31T07:10:06.080Z,25.60
2018-07-31T07:12:35.349Z,25.60
2018-07-31T07:15:04.886Z,25.70
2018-07-31T07:17:34.185Z,25.60
2018-07-31T07:20:03.380Z,25.70
2018-07-31T07:22:32.637Z,25.60
2018-07-31T07:25:01.991Z,25.50
2018-07-31T07:27:31.245Z,25.40
2018-07-31T07:30:00.452Z,25.60
2018-07-31T07:32:29.709Z,26.00
2018-07-31T07:34:58.832Z,26.40
2018-07-31T07:37:27.957Z,26.60
2018-07-31T07:39:57.323Z,26.60
2018-07-31T07:42:26.505Z,26.80
2018-07-31T07:44:55.704Z,26.80
2018-07-31T07:47:24.977Z,26.80
2018-07-31T07:49:54.146Z,26.80
2018-07-31T07:52:23.382Z,26.80
2018-07-31T07:57:21.568Z,26.30
2018-07-31T07:59:50.796Z,26.20
2018-07-31T08:02:19.941Z,25.80
2018-07-31T08:04:49.251Z,25.70
2018-07-31T08:07:18.405Z,25.60
2018-07-31T08:09:48.326Z,25.70
2018-07-31T08:12:17.685Z,25.60
2018-07-31T08:14:46.932Z,25.60
2018-07-31T08:17:16.175Z,25.60
2018-07-31T08:19:45.252Z,25.60
2018-07-31T08:22:14.474Z,25.60
2018-07-31T08:24:43.648Z,25.70
2018-07-31T08:27:12.869Z,25.90
2018-07-31T08:29:42.281Z,25.80
2018-07-31T08:32:11.463Z,25.90
2018-07-31T08:34:40.743Z,26.50
2018-07-31T08:37:10.023Z,27.10
2018-07-31T08:39:39.281Z,27.80
2018-07-31T08:42:08.479Z,28.20
2018-07-31T08:44:44.336Z,28.60
2018-07-31T08:47:13.526Z,28.70
2018-07-31T08:49:42.745Z,28.20
2018-07-31T08:52:12.195Z,27.90
2018-07-31T08:54:41.540Z,27.90
2018-07-31T08:57:10.633Z,28.00
2018-07-31T08:59:39.864Z,28.20
2018-07-31T09:02:09.095Z,28.10
2018-07-31T09:04:38.704Z,27.80
2018-07-31T09:07:08.033Z,28.00
2018-07-31T09:09:37.416Z,27.50
2018-07-31T09:12:06.612Z,27.50
2018-07-31T09:14:36.839Z,27.90
2018-07-31T09:17:06.064Z,28.40
2018-07-31T09:22:04.067Z,29.00
2018-07-31T09:24:33.223Z,29.00
2018-07-31T09:27:02.643Z,28.80
2018-07-31T09:29:31.927Z,28.80
2018-07-31T09:32:01.179Z,28.50
2018-07-31T09:34:30.414Z,28.60
2018-07-31T09:36:59.611Z,28.60
2018-07-31T09:39:28.851Z,28.40
2018-07-31T09:44:27.006Z,27.90
2018-07-31T09:46:56.093Z,28.00
2018-07-31T09:49:25.317Z,28.00
2018-07-31T09:51:55.064Z,27.90
2018-07-31T09:54:24.577Z,28.00
2018-07-31T09:56:53.798Z,27.90
2018-07-31T09:59:23.114Z,28.00
2018-07-31T10:01:52.376Z,28.50
2018-07-31T10:04:21.686Z,29.00
2018-07-31T10:06:50.965Z,29.80
2018-07-31T10:09:20.160Z,30.40
2018-07-31T10:11:49.432Z,31.30
2018-07-31T10:14:18.742Z,31.90
2018-07-31T10:16:48.204Z,32.10
2018-07-31T10:19:17.325Z,33.00
2018-07-31T10:21:46.548Z,32.60
2018-07-31T10:24:15.953Z,32.30
2018-07-31T10:29:14.143Z,32.90
2018-07-31T10:31:44.082Z,33.20
2018-07-31T10:34:13.404Z,33.30
2018-07-31T10:36:42.545Z,33.20
2018-07-31T10:39:11.775Z,32.90
2018-07-31T10:41:40.992Z,33.40
2018-07-31T10:44:10.179Z,33.30
2018-07-31T10:46:39.356Z,33.50
2018-07-31T10:49:08.791Z,33.10
2018-07-31T10:51:37.980Z,33.90
2018-07-31T10:54:07.129Z,34.60
2018-07-31T10:56:37.605Z,34.10
2018-07-31T10:59:06.765Z,33.20
2018-07-31T11:01:36.072Z,33.20
2018-07-31T11:04:05.359Z,34.10
2018-07-31T11:06:34.534Z,35.20
2018-07-31T11:09:05.677Z,35.60
2018-07-31T11:11:34.860Z,35.00
2018-07-31T11:14:04.685Z,35.20
2018-07-31T11:16:34.058Z,35.40
2018-07-31T11:19:03.411Z,36.00
2018-07-31T11:21:32.585Z,35.80
2018-07-31T11:24:01.980Z,34.90
2018-07-31T11:26:34.132Z,33.90
2018-07-31T11:29:03.450Z,33.20
2018-07-31T11:31:32.662Z,31.10
2018-07-31T11:34:02.043Z,29.30
2018-07-31T11:36:31.220Z,28.00
2018-07-31T11:39:00.824Z,26.10
2018-07-31T11:41:30.132Z,24.60
2018-07-31T11:43:59.376Z,23.80
2018-07-31T11:46:28.702Z,23.30
2018-07-31T11:48:57.911Z,23.10
2018-07-31T11:51:27.129Z,23.00
2018-07-31T11:53:56.342Z,22.90
2018-07-31T11:56:25.558Z,23.10
2018-07-31T11:58:54.898Z,23.20
2018-07-31T12:01:24.256Z,23.40
2018-07-31T12:03:53.675Z,24.40
2018-07-31T12:06:23.304Z,26.30
2018-07-31T12:08:52.536Z,27.60
2018-07-31T12:11:21.779Z,28.00
2018-07-31T12:13:50.956Z,28.30
2018-07-31T12:16:20.250Z,29.20
2018-07-31T12:18:49.512Z,28.20
2018-07-31T12:21:18.710Z,26.70
2018-07-31T12:23:47.975Z,26.50
2018-07-31T12:26:17.046Z,26.00
2018-07-31T12:28:46.877Z,25.40
2018-07-31T12:31:16.140Z,24.70
2018-07-31T12:33:45.291Z,24.10
2018-07-31T12:36:14.527Z,23.80
2018-07-31T12:38:43.753Z,23.50
2018-07-31T12:41:12.959Z,24.10
2018-07-31T12:43:42.359Z,25.20
2018-07-31T12:46:11.557Z,26.00
2018-07-31T12:48:40.909Z,26.30
2018-07-31T12:51:10.164Z,27.00
2018-07-31T12:53:39.344Z,27.30
2018-07-31T12:56:08.517Z,27.90
2018-07-31T12:58:37.736Z,28.30
2018-07-31T13:01:06.854Z,28.10
2018-07-31T13:03:36.048Z,27.00
2018-07-31T13:06:05.215Z,26.50
2018-07-31T13:08:34.411Z,26.20
2018-07-31T13:11:03.682Z,26.60
2018-07-31T13:13:33.023Z,27.70
2018-07-31T13:16:02.356Z,28.50
2018-07-31T13:18:31.733Z,28.70
2018-07-31T13:23:29.807Z,30.20
2018-07-31T13:25:59.131Z,31.00
2018-07-31T13:28:28.398Z,31.00
2018-07-31T13:30:57.651Z,30.80
2018-07-31T13:33:26.814Z,31.90
2018-07-31T13:35:55.905Z,32.70
2018-07-31T13:38:25.059Z,32.10
2018-07-31T13:40:54.160Z,32.40
2018-07-31T13:43:23.277Z,33.00
2018-07-31T13:45:52.927Z,33.60
2018-07-31T13:48:22.753Z,34.00
2018-07-31T13:53:20.656Z,33.30
2018-07-31T13:55:49.805Z,33.50
2018-07-31T13:58:19.236Z,33.80
2018-07-31T14:00:48.656Z,34.00
2018-07-31T14:03:17.789Z,34.00
2018-07-31T14:05:46.927Z,32.80
2018-07-31T14:08:16.317Z,32.30
2018-07-31T14:10:45.668Z,31.70
2018-07-31T14:13:14.899Z,32.60
2018-07-31T14:15:43.975Z,33.70
2018-07-31T14:18:13.130Z,33.90
2018-07-31T14:20:42.408Z,34.50
2018-07-31T14:23:11.723Z,34.70
2018-07-31T14:25:40.924Z,35.10
2018-07-31T14:28:10.156Z,34.40
2018-07-31T14:30:40.192Z,34.50
2018-07-31T14:33:09.365Z,34.70
2018-07-31T14:35:39.352Z,35.30
2018-07-31T14:38:08.202Z,35.30
2018-07-31T14:40:38.044Z,35.60
2018-07-31T14:43:07.160Z,34.80
2018-07-31T14:45:36.566Z,34.00
2018-07-31T14:48:05.717Z,33.60
2018-07-31T14:50:35.316Z,32.80
2018-07-31T14:53:04.538Z,33.40
2018-07-31T14:55:33.706Z,33.80
2018-07-31T14:58:02.959Z,33.70
2018-07-31T15:00:32.169Z,33.00
2018-07-31T15:03:01.514Z,33.40
2018-07-31T15:05:30.666Z,32.40
2018-07-31T15:07:59.782Z,31.70
2018-07-31T15:10:29.070Z,31.40
2018-07-31T15:12:58.225Z,31.20
2018-07-31T15:15:40.433Z,31.30
2018-07-31T15:18:10.120Z,32.60
2018-07-31T15:20:39.217Z,32.70
2018-07-31T15:23:08.421Z,31.00
2018-07-31T15:25:37.541Z,29.20
2018-07-31T15:28:06.692Z,28.10
2018-07-31T15:30:35.798Z,27.50
2018-07-31T15:33:05.017Z,28.20
2018-07-31T15:35:34.201Z,27.80
2018-07-31T15:38:03.451Z,28.10
2018-07-31T15:40:32.591Z,29.50
2018-07-31T15:43:01.768Z,29.80
2018-07-31T15:45:30.933Z,30.30
2018-07-31T15:48:00.056Z,29.50
2018-07-31T15:50:29.489Z,29.10
2018-07-31T15:52:58.754Z,28.80
2018-07-31T15:55:28.731Z,28.40
2018-07-31T15:57:57.878Z,28.10
2018-07-31T16:00:27.048Z,27.50
2018-07-31T16:02:56.068Z,27.20
2018-07-31T16:05:25.175Z,27.00
2018-07-31T16:07:54.359Z,26.50
2018-07-31T16:10:23.485Z,26.70
2018-07-31T16:12:52.686Z,26.50
2018-07-31T16:15:21.845Z,26.20
2018-07-31T16:17:51.047Z,26.00
2018-07-31T16:20:20.171Z,25.60
2018-07-31T16:22:49.395Z,25.40
2018-07-31T16:25:18.516Z,25.30
2018-07-31T16:27:47.646Z,25.40
2018-07-31T16:30:17.472Z,25.30
2018-07-31T16:32:47.135Z,25.20
2018-07-31T16:35:16.296Z,24.90
2018-07-31T16:37:45.544Z,24.80
2018-07-31T16:40:14.793Z,24.60
2018-07-31T16:42:43.869Z,24.50
2018-07-31T16:45:13.072Z,24.50
2018-07-31T16:47:42.194Z,24.40
2018-07-31T16:50:11.302Z,24.50
2018-07-31T16:52:40.514Z,24.40
2018-07-31T16:55:09.672Z,24.30
2018-07-31T16:57:38.900Z,24.20
2018-07-31T17:00:08.304Z,24.10
2018-07-31T17:02:37.433Z,24.10
2018-07-31T17:05:06.619Z,24.00
2018-07-31T17:07:35.761Z,23.80
2018-07-31T17:10:05.396Z,23.80
2018-07-31T17:12:34.660Z,23.80
2018-07-31T17:15:04.108Z,23.60
2018-07-31T17:17:33.315Z,23.50
2018-07-31T17:20:02.402Z,23.30
2018-07-31T17:22:31.546Z,23.20
2018-07-31T17:25:00.713Z,23.10
2018-07-31T17:27:29.853Z,23.10
2018-07-31T17:29:58.994Z,22.90
2018-07-31T17:32:28.095Z,22.90
2018-07-31T17:34:57.220Z,22.80
2018-07-31T17:37:26.300Z,22.60
2018-07-31T17:39:55.491Z,22.50
2018-07-31T17:42:24.646Z,22.50
2018-07-31T17:44:53.816Z,22.50
2018-07-31T17:47:22.941Z,22.40
2018-07-31T17:49:53.320Z,22.30
2018-07-31T17:52:22.413Z,22.20
2018-07-31T17:54:51.628Z,22.10
2018-07-31T17:57:21.513Z,22.10
2018-07-31T17:59:50.636Z,22.10
2018-07-31T18:02:19.740Z,22.00
2018-07-31T18:04:48.967Z,22.10
2018-07-31T18:07:18.367Z,22.10
2018-07-31T18:09:47.538Z,22.10
2018-07-31T18:12:16.954Z,22.00
2018-07-31T18:14:46.214Z,21.90
2018-07-31T18:17:15.456Z,21.90
2018-07-31T18:19:44.579Z,21.90
2018-07-31T18:22:13.858Z,21.80
2018-07-31T18:24:43.039Z,21.80
2018-07-31T18:27:12.237Z,21.70
2018-07-31T18:29:42.163Z,21.60
2018-07-31T18:32:11.941Z,21.30
2018-07-31T18:34:41.295Z,21.10
2018-07-31T18:37:10.568Z,21.00
2018-07-31T18:39:39.757Z,20.80
2018-07-31T18:42:09.186Z,20.70
2018-07-31T18:47:07.484Z,20.50
2018-07-31T18:49:36.979Z,20.50
2018-07-31T18:52:06.299Z,20.40
2018-07-31T18:54:35.460Z,20.30
2018-07-31T18:57:04.730Z,20.20
2018-07-31T18:59:34.126Z,20.10
2018-07-31T19:02:03.516Z,20.10
2018-07-31T19:04:32.993Z,19.90
2018-07-31T19:07:02.320Z,19.90
2018-07-31T19:09:32.096Z,19.80
2018-07-31T19:12:02.291Z,19.70
2018-07-31T19:14:31.480Z,19.60
2018-07-31T19:17:00.749Z,19.40
2018-07-31T19:19:30.261Z,19.30
2018-07-31T19:21:59.455Z,19.20
2018-07-31T19:24:29.632Z,19.10
2018-07-31T19:26:58.858Z,19.00
2018-07-31T19:29:28.019Z,18.90
2018-07-31T19:31:57.161Z,18.80
2018-07-31T19:34:26.871Z,18.80
2018-07-31T19:36:56.308Z,18.70
2018-07-31T19:39:25.629Z,18.70
2018-07-31T19:41:54.956Z,18.60
2018-07-31T19:44:24.271Z,18.50
2018-07-31T19:46:53.639Z,18.50
2018-07-31T19:49:22.791Z,18.40
2018-07-31T19:51:52.040Z,18.40
2018-07-31T19:54:21.294Z,18.30
2018-07-31T19:56:50.479Z,18.20
2018-07-31T19:59:19.605Z,18.20
2018-07-31T20:01:48.855Z,18.10
2018-07-31T20:04:18.038Z,18.10
2018-07-31T20:06:48.016Z,18.00
2018-07-31T20:09:22.471Z,18.00
2018-07-31T20:11:51.699Z,17.90
2018-07-31T20:14:21.222Z,17.80
2018-07-31T20:16:50.442Z,17.80
2018-07-31T20:19:19.722Z,17.70
2018-07-31T20:21:48.907Z,17.70
2018-07-31T20:24:18.117Z,17.60
2018-07-31T20:26:47.312Z,17.60
2018-07-31T20:29:16.500Z,17.50
2018-07-31T20:31:46.119Z,17.50
2018-07-31T20:34:15.329Z,17.40
2018-07-31T20:36:44.484Z,17.40
2018-07-31T20:39:13.762Z,17.40
2018-07-31T20:41:43.018Z,17.30
2018-07-31T20:44:12.293Z,17.30
2018-07-31T20:46:41.543Z,17.10
2018-07-31T20:49:10.872Z,17.00
2018-07-31T20:51:39.951Z,16.90
2018-07-31T20:54:09.124Z,16.80
2018-07-31T20:56:38.402Z,16.70
2018-07-31T20:59:07.710Z,16.60
2018-07-31T21:01:37.095Z,16.50
2018-07-31T21:04:06.730Z,16.50
2018-07-31T21:06:35.930Z,16.40
2018-07-31T21:09:08.705Z,16.30
2018-07-31T21:11:38.057Z,16.20
2018-07-31T21:14:07.217Z,16.20
2018-07-31T21:16:36.384Z,16.10
2018-07-31T21:19:05.590Z,16.10
2018-07-31T21:21:34.789Z,16.00
2018-07-31T21:24:03.986Z,15.90
2018-07-31T21:26:33.158Z,15.80
2018-07-31T21:29:02.652Z,15.70
2018-07-31T21:31:31.805Z,15.70
2018-07-31T21:34:00.982Z,15.60
2018-07-31T21:36:30.184Z,15.50
2018-07-31T21:38:59.299Z,15.50
2018-07-31T21:41:28.560Z,15.50
2018-07-31T21:43:57.731Z,15.40
2018-07-31T21:46:26.953Z,15.40
2018-07-31T21:48:56.164Z,15.30
2018-07-31T21:51:25.888Z,15.30
2018-07-31T21:53:55.285Z,15.30
2018-07-31T21:56:24.608Z,15.30
2018-07-31T21:58:53.791Z,15.20
2018-07-31T22:01:22.986Z,15.30
2018-07-31T22:03:52.362Z,15.40
2018-07-31T22:06:21.703Z,15.60
2018-07-31T22:08:50.797Z,15.70
2018-07-31T22:13:49.070Z,15.70
2018-07-31T22:16:18.317Z,15.80
2018-07-31T22:18:47.505Z,15.80
2018-07-31T22:21:16.794Z,15.60
2018-07-31T22:23:45.920Z,15.50
2018-07-31T22:26:15.280Z,15.50
2018-07-31T22:28:44.501Z,15.40
2018-07-31T22:31:13.789Z,15.30
2018-07-31T22:36:12.084Z,15.30
2018-07-31T22:38:41.384Z,15.20
2018-07-31T22:41:10.522Z,15.20
2018-07-31T22:43:40.880Z,15.20
2018-07-31T22:46:10.207Z,15.20
2018-07-31T22:48:39.356Z,15.20
2018-07-31T22:51:08.700Z,15.30
2018-07-31T22:53:38.076Z,15.30
2018-07-31T22:56:07.304Z,15.30
2018-07-31T22:58:36.477Z,15.30
2018-07-31T23:01:05.598Z,15.40
2018-07-31T23:03:34.799Z,15.30
2018-07-31T23:06:04.055Z,15.20
2018-07-31T23:08:33.293Z,15.10
2018-07-31T23:11:02.604Z,15.10
2018-07-31T23:13:31.779Z,15.00
2018-07-31T23:16:01.051Z,14.90
2018-07-31T23:18:30.308Z,14.90
2018-07-31T23:20:59.516Z,14.90
2018-07-31T23:23:28.852Z,14.80
2018-07-31T23:25:58.084Z,14.80
2018-07-31T23:28:27.304Z,14.80
2018-07-31T23:30:56.379Z,14.80
2018-07-31T23:33:25.523Z,14.80
2018-07-31T23:35:54.780Z,14.70
2018-07-31T23:38:24.055Z,14.60
2018-07-31T23:40:53.246Z,14.60
2018-07-31T23:43:22.368Z,14.60
2018-07-31T23:45:52.307Z,14.70
2018-07-31T23:48:21.492Z,14.70
2018-07-31T23:50:50.693Z,14.60
2018-07-31T23:53:20.012Z,14.60
2018-07-31T23:55:49.175Z,14.60
2018-07-31T23:58:18.531Z,14.60
